Time;durP1;ratioP1;P1;durP2;ratioP2;P2;SDS_P1;SDS_P2;PMS_P1;PMS_P2;Temp;Humidity;BMP_temperature;BMP_pressure;BME280_temperature;BME280_humidity;BME280_pressure;Samples;Min_cycle;Max_cycle;Signal;HPM_P1;HPM_P2
2023/02/12 00:00:07;;;;;;;123.03;34.20;;;7.40;99.90;;;;;;5004145;28;20162;-84
2023/02/12 00:02:33;;;;;;;122.30;33.08;;;7.40;99.90;;;;;;5007073;28;20193;-84
2023/02/12 00:04:58;;;;;;;132.03;35.60;;;7.40;99.90;;;;;;5003879;28;20167;-83
2023/02/12 00:07:24;;;;;;;121.23;31.90;;;7.40;99.90;;;;;;5003829;28;20186;-84
2023/02/12 00:09:50;;;;;;;132.00;36.17;;;7.40;99.90;;;;;;4985934;28;20262;-84
2023/02/12 00:12:15;;;;;;;131.67;35.20;;;7.40;99.90;;;;;;4985774;28;20197;-84
2023/02/12 00:14:41;;;;;;;128.20;36.10;;;7.40;99.90;;;;;;4985276;28;20254;-84
2023/02/12 00:17:10;;;;;;;134.40;38.47;;;7.40;99.90;;;;;;4986078;28;20230;-85
2023/02/12 00:19:35;;;;;;;126.65;35.85;;;7.40;99.90;;;;;;5003582;28;20167;-84
2023/02/12 00:22:01;;;;;;;125.33;36.10;;;7.40;99.90;;;;;;5003664;28;20186;-85
2023/02/12 00:24:27;;;;;;;121.83;36.10;;;7.40;99.90;;;;;;4987339;28;20265;-85
2023/02/12 00:26:53;;;;;;;121.77;34.27;;;7.40;99.90;;;;;;5004220;28;20171;-84
2023/02/12 00:29:18;;;;;;;122.97;35.00;;;7.40;99.90;;;;;;5004445;28;20225;-83
2023/02/12 00:31:44;;;;;;;127.30;33.83;;;7.40;99.90;;;;;;4986940;28;20212;-85
2023/02/12 00:34:10;;;;;;;118.37;33.10;;;7.40;99.90;;;;;;5004381;28;20163;-86
2023/02/12 00:36:36;;;;;;;128.18;33.72;;;7.30;99.90;;;;;;5004482;28;20232;-85
2023/02/12 00:39:02;;;;;;;119.63;32.80;;;7.30;99.90;;;;;;4986389;28;20166;-84
2023/02/12 00:41:28;;;;;;;130.95;33.08;;;7.30;99.90;;;;;;5001888;28;20209;-84
2023/02/12 00:43:53;;;;;;;128.73;37.10;;;7.30;99.90;;;;;;5004284;28;20190;-85
2023/02/12 00:46:20;;;;;;;124.03;34.17;;;7.30;99.90;;;;;;5004004;28;20409;-84
2023/02/12 00:48:46;;;;;;;126.70;36.08;;;7.30;99.90;;;;;;4985736;28;20202;-84
2023/02/12 00:51:12;;;;;;;121.80;33.00;;;7.30;99.90;;;;;;5003681;28;20250;-84
2023/02/12 00:53:38;;;;;;;119.57;31.70;;;7.30;99.90;;;;;;5002256;28;20170;-85
2023/02/12 00:56:04;;;;;;;122.93;34.90;;;7.30;99.90;;;;;;5001221;28;20167;-84
2023/02/12 00:58:29;;;;;;;118.50;32.73;;;7.30;99.90;;;;;;5001499;28;20428;-85
2023/02/12 01:00:55;;;;;;;125.17;32.60;;;7.30;99.90;;;;;;5003174;28;20988;-85
2023/02/12 01:03:21;;;;;;;128.37;33.80;;;7.20;99.90;;;;;;5003474;28;20171;-84
2023/02/12 01:05:47;;;;;;;125.80;36.53;;;7.20;99.90;;;;;;5003298;28;20241;-84
2023/02/12 01:08:14;;;;;;;132.57;34.17;;;7.20;99.90;;;;;;4986263;28;20174;-84
2023/02/12 01:10:41;;;;;;;118.82;34.15;;;7.20;99.90;;;;;;5003190;28;20166;-84
2023/02/12 01:13:09;;;;;;;122.25;34.85;;;7.20;99.90;;;;;;5003775;28;20166;-84
2023/02/12 01:15:35;;;;;;;125.93;36.30;;;7.20;99.90;;;;;;5003173;28;20166;-85
2023/02/12 01:18:04;;;;;;;122.30;33.73;;;7.20;99.90;;;;;;5002916;28;20210;-84
2023/02/12 01:20:29;;;;;;;133.52;37.50;;;7.20;99.90;;;;;;5003215;28;20177;-84
2023/02/12 01:22:55;;;;;;;127.83;35.30;;;7.20;99.90;;;;;;4985460;28;20167;-85
2023/02/12 01:25:21;;;;;;;118.70;34.87;;;7.20;99.90;;;;;;5003125;28;20489;-85
2023/02/12 01:27:47;;;;;;;119.10;32.33;;;7.20;99.90;;;;;;4985980;28;20202;-84
2023/02/12 01:30:16;;;;;;;124.47;37.20;;;7.20;99.90;;;;;;5002668;28;20194;-85
2023/02/12 01:32:46;;;;;;;127.25;34.15;;;7.10;99.90;;;;;;5002819;28;20449;-85
2023/02/12 01:35:11;;;;;;;126.18;37.55;;;7.10;99.90;;;;;;4985496;28;20258;-84
2023/02/12 01:37:37;;;;;;;122.60;34.00;;;7.10;99.90;;;;;;5002642;28;20610;-84
2023/02/12 01:40:08;;;;;;;122.77;35.90;;;7.10;99.90;;;;;;4985099;28;20646;-84
2023/02/12 01:42:34;;;;;;;120.28;33.75;;;7.10;99.90;;;;;;5002913;28;20422;-84
2023/02/12 01:45:12;;;;;;;123.60;35.25;;;7.10;99.90;;;;;;4985100;28;20165;-84
2023/02/12 01:47:42;;;;;;;125.60;36.88;;;7.10;99.90;;;;;;4984804;28;20642;-84
2023/02/12 01:50:13;;;;;;;122.13;35.30;;;7.10;99.90;;;;;;4984898;28;20190;-84
2023/02/12 01:52:42;;;;;;;121.40;34.53;;;7.10;99.90;;;;;;4984747;28;20186;-84
2023/02/12 01:55:10;;;;;;;119.72;35.50;;;7.10;99.90;;;;;;5002470;28;20217;-84
2023/02/12 01:57:42;;;;;;;123.60;34.85;;;7.10;99.90;;;;;;4984274;28;20231;-84
2023/02/12 02:00:12;;;;;;;130.88;34.90;;;7.10;99.90;;;;;;5002241;28;20688;-84
2023/02/12 02:02:39;;;;;;;121.05;34.15;;;7.10;99.90;;;;;;5001930;28;20198;-85
2023/02/12 02:05:06;;;;;;;124.38;32.80;;;7.10;99.90;;;;;;5002156;28;20221;-84
2023/02/12 02:07:32;;;;;;;123.35;35.13;;;7.10;99.90;;;;;;5002196;28;20190;-84
2023/02/12 02:09:58;;;;;;;126.47;34.90;;;7.20;99.90;;;;;;5002782;28;20285;-84
2023/02/12 02:15:10;;;;;;;127.72;33.88;;;7.10;99.90;;;;;;5002388;28;20162;-84
2023/02/12 02:17:58;;;;;;;121.53;33.50;;;7.10;99.90;;;;;;5001834;28;20627;-83
2023/02/12 02:20:48;;;;;;;123.57;34.00;;;7.10;99.90;;;;;;5001421;28;20154;-84
2023/02/12 02:23:26;;;;;;;126.22;32.35;;;7.20;99.90;;;;;;4983482;28;20162;-85
2023/02/12 02:26:07;;;;;;;133.15;37.70;;;7.10;99.90;;;;;;4982381;28;20244;-85
2023/02/12 02:29:24;;;;;;;122.00;35.85;;;7.10;99.90;;;;;;5000097;28;20200;-85
2023/02/12 02:31:57;;;;;;;120.63;33.42;;;7.20;99.90;;;;;;4920391;29;20193;-85
2023/02/12 02:34:33;;;;;;;123.75;33.92;;;7.20;99.90;;;;;;4921178;29;20164;-84
2023/02/12 02:37:12;;;;;;;123.93;34.80;;;7.10;99.90;;;;;;4967001;28;20236;-85
2023/02/12 02:39:55;;;;;;;122.80;32.33;;;7.10;99.90;;;;;;4999611;28;20682;-85
2023/02/12 02:42:42;;;;;;;120.25;34.78;;;7.10;99.90;;;;;;4983681;28;20198;-84
2023/02/12 02:45:49;;;;;;;117.43;32.10;;;7.10;99.90;;;;;;4984053;28;20685;-84
2023/02/12 02:48:35;;;;;;;124.97;32.85;;;7.10;99.90;;;;;;4982901;28;20182;-84
2023/02/12 02:51:09;;;;;;;125.35;36.05;;;7.10;99.90;;;;;;5001331;28;20183;-84
2023/02/12 02:53:56;;;;;;;120.15;32.90;;;7.10;99.90;;;;;;5001611;28;20157;-85
2023/02/12 02:56:24;;;;;;;117.85;32.00;;;7.10;99.90;;;;;;5001326;28;20159;-84
2023/02/12 02:59:02;;;;;;;127.65;34.92;;;7.10;99.90;;;;;;5002166;28;20174;-83
2023/02/12 03:01:42;;;;;;;129.13;36.90;;;7.10;99.90;;;;;;5001942;28;20186;-84
2023/02/12 03:04:49;;;;;;;126.72;36.38;;;7.00;99.90;;;;;;4984328;28;20169;-83
2023/02/12 03:07:30;;;;;;;124.95;34.22;;;7.10;99.90;;;;;;4984255;28;20163;-84
2023/02/12 03:10:10;;;;;;;115.53;31.00;;;7.10;99.90;;;;;;5001735;28;20182;-84
2023/02/12 03:12:54;;;;;;;124.20;34.30;;;7.00;99.90;;;;;;5001903;28;20182;-84
2023/02/12 03:15:30;;;;;;;139.23;35.40;;;7.00;99.90;;;;;;4983216;28;20159;-84
2023/02/12 03:17:58;;;;;;;123.32;34.47;;;7.00;99.90;;;;;;5001626;28;20614;-85
2023/02/12 03:20:29;;;;;;;126.90;34.33;;;7.00;99.90;;;;;;5001474;28;20167;-84
2023/02/12 03:23:06;;;;;;;127.03;32.13;;;7.00;99.90;;;;;;5001108;28;20174;-84
2023/02/12 03:25:56;;;;;;;128.65;34.42;;;7.00;99.90;;;;;;5001234;28;20510;-84
2023/02/12 03:28:31;;;;;;;122.88;33.65;;;7.00;99.90;;;;;;4983624;28;20186;-84
2023/02/12 03:31:30;;;;;;;124.15;36.95;;;7.10;99.90;;;;;;4983692;28;20593;-84
2023/02/12 03:34:28;;;;;;;123.38;34.25;;;7.00;99.90;;;;;;5001599;28;20677;-84
2023/02/12 03:37:29;;;;;;;118.78;31.33;;;7.00;99.90;;;;;;4960573;28;20570;-85
2023/02/12 03:40:10;;;;;;;125.80;32.10;;;7.00;99.90;;;;;;4983921;28;20272;-84
2023/02/12 03:42:59;;;;;;;118.40;30.88;;;7.00;99.90;;;;;;5000786;28;20186;-84
2023/02/12 03:45:37;;;;;;;118.65;31.15;;;7.00;99.90;;;;;;4990261;28;20261;-84
2023/02/12 03:48:09;;;;;;;120.70;33.70;;;7.00;99.90;;;;;;5001455;28;20164;-84
2023/02/12 03:50:46;;;;;;;123.95;33.60;;;7.00;99.90;;;;;;5004298;28;20194;-85
2023/02/12 03:53:12;;;;;;;122.57;34.55;;;7.00;99.90;;;;;;5004579;28;20246;-84
2023/02/12 03:55:44;;;;;;;115.63;31.40;;;7.00;99.90;;;;;;4984926;28;20202;-85
2023/02/12 03:58:15;;;;;;;122.10;33.65;;;7.00;99.90;;;;;;5002481;28;20146;-84
2023/02/12 04:00:41;;;;;;;125.28;35.70;;;7.00;99.90;;;;;;5002600;28;20147;-84
2023/02/12 04:03:07;;;;;;;119.32;35.22;;;7.00;99.90;;;;;;5002406;28;20166;-85
2023/02/12 04:05:33;;;;;;;128.57;34.77;;;7.00;99.90;;;;;;5002683;28;20167;-85
2023/02/12 04:08:01;;;;;;;123.10;34.90;;;6.90;99.90;;;;;;5002853;28;20437;-85
2023/02/12 04:10:37;;;;;;;131.93;36.60;;;7.00;99.90;;;;;;5002881;28;20167;-85
2023/02/12 04:13:17;;;;;;;123.55;35.45;;;7.00;99.90;;;;;;5002928;28;20154;-85
2023/02/12 04:15:58;;;;;;;128.68;34.70;;;7.00;99.90;;;;;;5002997;28;20163;-84
2023/02/12 04:18:43;;;;;;;125.38;33.83;;;6.90;99.90;;;;;;4985091;28;20162;-84
2023/02/12 04:21:12;;;;;;;125.55;36.75;;;7.00;99.90;;;;;;5003412;28;20188;-85
2023/02/12 04:23:57;;;;;;;126.93;34.80;;;7.00;99.90;;;;;;5003369;28;20162;-84
2023/02/12 04:26:32;;;;;;;117.03;32.28;;;7.00;99.90;;;;;;5003274;28;20154;-84
2023/02/12 04:29:20;;;;;;;132.10;34.55;;;7.00;99.90;;;;;;5002631;28;20189;-84
2023/02/12 04:31:56;;;;;;;119.30;31.65;;;7.00;99.90;;;;;;5004096;28;20182;-84
2023/02/12 04:34:43;;;;;;;127.85;35.05;;;7.00;99.90;;;;;;5003926;28;20220;-84
2023/02/12 04:37:40;;;;;;;124.35;34.90;;;7.00;99.90;;;;;;5004078;28;20241;-84
2023/02/12 04:40:12;;;;;;;143.32;37.95;;;7.00;99.90;;;;;;4988383;28;20198;-84
2023/02/12 04:42:46;;;;;;;115.95;31.63;;;7.00;99.90;;;;;;5003605;28;20682;-84
2023/02/12 04:45:15;;;;;;;125.15;36.97;;;7.00;99.90;;;;;;4986158;28;20163;-84
2023/02/12 04:47:40;;;;;;;120.82;35.05;;;7.00;99.90;;;;;;5003521;28;20163;-84
2023/02/12 04:50:07;;;;;;;125.50;37.53;;;7.00;99.90;;;;;;5003709;28;20212;-84
2023/02/12 04:52:33;;;;;;;126.93;36.50;;;7.00;99.90;;;;;;5002918;28;20227;-84
2023/02/12 04:54:58;;;;;;;129.60;36.13;;;7.00;99.90;;;;;;5003942;28;20163;-85
2023/02/12 04:57:24;;;;;;;122.07;33.53;;;7.00;99.90;;;;;;4985886;28;20167;-85
2023/02/12 04:59:50;;;;;;;123.73;34.43;;;7.00;99.90;;;;;;5003398;28;20214;-84
2023/02/12 05:02:15;;;;;;;119.07;33.13;;;7.00;99.90;;;;;;4984994;28;20240;-84
2023/02/12 05:04:41;;;;;;;123.50;35.57;;;7.00;99.90;;;;;;5003221;28;20173;-84
2023/02/12 05:07:07;;;;;;;124.90;34.60;;;7.00;99.90;;;;;;5003422;28;20163;-84
2023/02/12 05:09:32;;;;;;;125.57;34.53;;;7.00;99.90;;;;;;5002988;28;20202;-84
2023/02/12 05:11:58;;;;;;;126.17;37.77;;;7.00;99.90;;;;;;5002561;28;20182;-84
2023/02/12 05:14:24;;;;;;;127.47;36.37;;;7.00;99.90;;;;;;5001182;28;20174;-84
2023/02/12 05:16:50;;;;;;;131.50;34.92;;;7.00;99.90;;;;;;5001361;28;20397;-85
2023/02/12 05:19:16;;;;;;;126.40;35.70;;;7.00;99.90;;;;;;5001738;28;20553;-85
2023/02/12 05:21:41;;;;;;;128.20;36.37;;;7.00;99.90;;;;;;5000921;28;20187;-85
2023/02/12 05:24:07;;;;;;;123.40;39.27;;;7.00;99.90;;;;;;4983442;28;20178;-84
2023/02/12 05:26:33;;;;;;;129.40;37.97;;;7.00;99.90;;;;;;4983084;28;20233;-85
2023/02/12 05:28:59;;;;;;;135.40;36.47;;;7.00;99.90;;;;;;5000896;28;20453;-85
2023/02/12 05:31:25;;;;;;;125.90;34.37;;;7.00;99.90;;;;;;5000339;28;20182;-85
2023/02/12 05:33:51;;;;;;;126.10;35.57;;;7.00;99.90;;;;;;4983370;28;20413;-85
2023/02/12 05:36:20;;;;;;;125.20;35.93;;;7.00;99.90;;;;;;4983321;28;20167;-85
2023/02/12 05:38:45;;;;;;;125.10;35.28;;;7.00;99.90;;;;;;4982938;28;20265;-85
2023/02/12 05:41:22;;;;;;;126.67;36.53;;;7.00;99.90;;;;;;4982500;28;20233;-85
2023/02/12 05:43:49;;;;;;;131.38;37.42;;;7.00;99.90;;;;;;5000425;28;20432;-85
2023/02/12 05:46:15;;;;;;;133.93;39.97;;;6.90;99.90;;;;;;5000790;28;20197;-85
2023/02/12 05:48:40;;;;;;;124.87;35.70;;;6.90;99.90;;;;;;5000003;28;20191;-85
2023/02/12 05:51:20;;;;;;;133.13;37.50;;;6.90;99.90;;;;;;4983226;28;20523;-85
2023/02/12 05:53:47;;;;;;;128.82;33.60;;;6.90;99.90;;;;;;5000914;28;20558;-85
2023/02/12 05:56:17;;;;;;;121.60;33.58;;;6.90;99.90;;;;;;4983120;28;20193;-85
2023/02/12 05:58:45;;;;;;;118.97;32.35;;;6.90;99.90;;;;;;5000562;28;20171;-85
2023/02/12 06:01:17;;;;;;;121.78;35.38;;;6.90;99.90;;;;;;5000565;28;20190;-85
2023/02/12 06:03:43;;;;;;;128.20;37.58;;;6.90;99.90;;;;;;4982669;28;20174;-85
2023/02/12 06:06:09;;;;;;;125.97;34.95;;;6.90;99.90;;;;;;5000330;28;20174;-85
2023/02/12 06:08:36;;;;;;;132.77;33.53;;;6.90;99.90;;;;;;4999976;28;20222;-85
2023/02/12 06:11:04;;;;;;;122.25;33.42;;;6.90;99.90;;;;;;5000312;28;20213;-85
2023/02/12 06:13:30;;;;;;;120.88;35.55;;;6.90;99.90;;;;;;4981562;28;20582;-85
2023/02/12 06:15:56;;;;;;;128.60;34.08;;;6.90;99.90;;;;;;5000762;28;20193;-85
2023/02/12 06:18:22;;;;;;;118.38;34.58;;;6.90;99.90;;;;;;5000749;28;20164;-85
2023/02/12 06:20:48;;;;;;;122.30;34.63;;;6.90;99.90;;;;;;5000230;28;20245;-85
2023/02/12 06:23:14;;;;;;;119.87;34.20;;;6.80;99.90;;;;;;5000070;28;20205;-85
2023/02/12 06:25:40;;;;;;;129.37;37.23;;;6.90;99.90;;;;;;4999908;28;20189;-85
2023/02/12 06:28:05;;;;;;;122.50;36.87;;;6.80;99.90;;;;;;4983012;28;20499;-85
2023/02/12 06:30:36;;;;;;;128.30;35.70;;;6.80;99.90;;;;;;4999874;28;20171;-85
2023/02/12 06:33:01;;;;;;;119.47;32.75;;;6.80;99.90;;;;;;5000716;28;20155;-85
2023/02/12 06:35:27;;;;;;;131.43;37.00;;;6.80;99.90;;;;;;4982335;28;20185;-85
2023/02/12 06:37:53;;;;;;;125.87;34.57;;;6.80;99.90;;;;;;4999450;28;20178;-84
2023/02/12 06:40:19;;;;;;;129.40;38.07;;;6.80;99.90;;;;;;4999377;28;20167;-84
2023/02/12 06:42:44;;;;;;;126.30;34.70;;;6.90;99.90;;;;;;4982118;28;20221;-84
2023/02/12 06:45:10;;;;;;;129.13;36.90;;;6.90;99.90;;;;;;4999572;28;20398;-84
2023/02/12 06:47:36;;;;;;;118.97;33.27;;;6.80;99.90;;;;;;4999296;28;20170;-84
2023/02/12 06:50:01;;;;;;;128.27;34.83;;;6.80;99.90;;;;;;4999402;28;20198;-84
2023/02/12 06:52:28;;;;;;;133.57;35.00;;;6.80;99.90;;;;;;4998968;28;20188;-84
2023/02/12 06:54:53;;;;;;;127.80;36.30;;;6.80;99.90;;;;;;4999348;28;20221;-84
2023/02/12 06:57:20;;;;;;;127.43;35.20;;;6.80;99.90;;;;;;4998803;28;20170;-83
2023/02/12 06:59:45;;;;;;;121.25;31.77;;;6.80;99.90;;;;;;4982061;28;20174;-83
2023/02/12 07:02:11;;;;;;;121.07;29.73;;;6.80;99.90;;;;;;4981391;28;20240;-84
2023/02/12 07:04:38;;;;;;;120.10;33.33;;;6.80;99.90;;;;;;4999422;28;20224;-83
2023/02/12 07:07:04;;;;;;;120.68;34.53;;;6.80;99.90;;;;;;4965720;28;20248;-83
2023/02/12 07:09:30;;;;;;;121.88;34.95;;;6.80;99.90;;;;;;4998851;28;20200;-83
2023/02/12 07:11:59;;;;;;;122.73;33.37;;;6.80;99.90;;;;;;4981589;28;20617;-83
2023/02/12 07:14:33;;;;;;;120.72;31.15;;;6.80;99.90;;;;;;4998291;28;20418;-83
2023/02/12 07:17:02;;;;;;;132.50;35.40;;;6.80;99.90;;;;;;4981645;28;20159;-83
2023/02/12 07:19:28;;;;;;;117.47;31.70;;;6.80;99.90;;;;;;4998608;28;20198;-83
2023/02/12 07:21:54;;;;;;;123.85;32.50;;;6.90;99.90;;;;;;4998820;28;20261;-83
2023/02/12 07:24:23;;;;;;;126.07;33.20;;;6.90;99.90;;;;;;4999716;28;20661;-83
2023/02/12 07:26:48;;;;;;;119.40;34.17;;;6.90;99.90;;;;;;4984903;28;20844;-83
2023/02/12 07:29:14;;;;;;;124.67;37.03;;;6.90;99.90;;;;;;4985146;28;20194;-83
2023/02/12 07:31:40;;;;;;;123.67;35.60;;;6.90;99.90;;;;;;5002673;28;20597;-83
2023/02/12 07:34:06;;;;;;;129.90;33.00;;;6.90;99.90;;;;;;5003110;28;20405;-83
2023/02/12 07:36:33;;;;;;;122.53;34.40;;;6.90;99.90;;;;;;4984600;28;20421;-83
2023/02/12 07:39:00;;;;;;;126.90;34.58;;;6.90;99.90;;;;;;4984430;28;20410;-84
2023/02/12 07:41:28;;;;;;;121.57;33.65;;;7.00;99.90;;;;;;5000858;28;20241;-83
2023/02/12 07:44:02;;;;;;;123.45;33.30;;;7.00;99.90;;;;;;5001903;28;20182;-83
2023/02/12 07:46:31;;;;;;;131.23;34.38;;;7.00;99.90;;;;;;5001150;28;20238;-83
2023/02/12 07:48:58;;;;;;;131.93;35.95;;;7.00;99.90;;;;;;4984069;28;20589;-83
2023/02/12 07:51:26;;;;;;;115.60;35.17;;;7.00;99.90;;;;;;4984535;28;20197;-83
2023/02/12 07:53:52;;;;;;;123.85;33.88;;;7.00;99.90;;;;;;5002384;28;20166;-83
2023/02/12 07:56:20;;;;;;;129.13;35.80;;;7.10;99.90;;;;;;4984188;28;20170;-83
2023/02/12 07:58:47;;;;;;;122.82;32.05;;;7.00;99.90;;;;;;4984598;28;20175;-83
2023/02/12 08:01:20;;;;;;;119.60;34.00;;;7.00;99.90;;;;;;5001835;28;20264;-83
2023/02/12 08:03:46;;;;;;;129.90;36.95;;;7.20;99.90;;;;;;4984288;28;20503;-83
2023/02/12 08:06:25;;;;;;;130.00;34.38;;;7.20;99.90;;;;;;5002041;28;20159;-83
2023/02/12 08:08:52;;;;;;;123.22;35.63;;;7.20;99.90;;;;;;4984537;28;20199;-83
2023/02/12 08:11:18;;;;;;;120.50;34.75;;;7.20;99.90;;;;;;5001373;28;20186;-83
2023/02/12 08:13:45;;;;;;;135.00;43.00;;;7.20;99.90;;;;;;4984229;28;20171;-83
2023/02/12 08:16:13;;;;;;;126.65;44.67;;;7.20;99.90;;;;;;5001871;28;20289;-83
2023/02/12 08:18:39;;;;;;;124.88;40.50;;;7.10;99.90;;;;;;5001388;28;20201;-83
2023/02/12 08:21:11;;;;;;;116.53;37.20;;;7.20;99.90;;;;;;5001402;28;20186;-83
2023/02/12 08:23:37;;;;;;;120.55;36.75;;;7.30;99.90;;;;;;4983943;28;20243;-83
2023/02/12 08:26:20;;;;;;;123.05;36.83;;;7.30;99.90;;;;;;4984416;28;20649;-83
2023/02/12 08:28:58;;;;;;;122.57;37.42;;;7.20;99.90;;;;;;4983190;28;20654;-83
2023/02/12 08:31:33;;;;;;;128.68;40.85;;;7.20;99.90;;;;;;4983289;28;20182;-83
2023/02/12 08:33:59;;;;;;;123.47;38.13;;;7.30;99.90;;;;;;5001535;28;20154;-83
2023/02/12 08:36:34;;;;;;;124.90;34.65;;;7.40;99.90;;;;;;5000292;28;20163;-83
2023/02/12 08:39:00;;;;;;;120.32;34.92;;;7.40;99.90;;;;;;5001425;28;20189;-83
2023/02/12 08:41:27;;;;;;;114.10;33.70;;;7.40;99.90;;;;;;4983028;28;20616;-83
2023/02/12 08:43:56;;;;;;;119.25;35.33;;;7.40;99.90;;;;;;5001224;28;20193;-83
2023/02/12 08:46:24;;;;;;;119.18;35.63;;;7.40;99.90;;;;;;5000582;28;20173;-85
2023/02/12 08:48:53;;;;;;;111.30;33.22;;;7.50;99.90;;;;;;4984065;28;20233;-83
2023/02/12 08:51:21;;;;;;;116.85;34.60;;;7.50;99.90;;;;;;5000898;28;20205;-83
2023/02/12 08:53:51;;;;;;;125.88;38.13;;;7.50;99.90;;;;;;5000427;28;20212;-84
2023/02/12 08:56:17;;;;;;;121.22;35.58;;;7.60;99.90;;;;;;5001322;28;20197;-83
2023/02/12 08:58:44;;;;;;;114.13;34.53;;;7.70;99.90;;;;;;5000297;28;20162;-83
2023/02/12 09:01:12;;;;;;;122.15;35.08;;;7.70;99.90;;;;;;5000749;28;20206;-83
2023/02/12 09:03:38;;;;;;;123.82;37.10;;;7.70;99.90;;;;;;5000467;28;20233;-83
2023/02/12 09:06:05;;;;;;;120.53;38.55;;;7.70;99.90;;;;;;4983335;28;20546;-83
2023/02/12 09:08:32;;;;;;;120.72;35.60;;;7.80;99.90;;;;;;4982556;28;20202;-83
2023/02/12 09:10:58;;;;;;;121.20;37.67;;;7.80;99.90;;;;;;5000924;28;20242;-83
2023/02/12 09:13:24;;;;;;;120.45;36.83;;;7.80;99.90;;;;;;5001295;28;20242;-83
2023/02/12 09:15:50;;;;;;;120.65;37.25;;;7.80;99.90;;;;;;5000767;28;20165;-83
2023/02/12 09:18:16;;;;;;;124.40;39.27;;;7.90;99.90;;;;;;4983523;28;20656;-83
2023/02/12 09:20:43;;;;;;;117.65;35.42;;;7.90;99.90;;;;;;4983325;28;20166;-83
2023/02/12 09:23:12;;;;;;;114.72;34.15;;;7.90;99.90;;;;;;5001083;28;20170;-84
2023/02/12 09:25:43;;;;;;;110.25;31.08;;;8.00;99.90;;;;;;4983089;28;20182;-84
2023/02/12 09:28:11;;;;;;;115.40;33.53;;;8.20;99.90;;;;;;5000888;28;20162;-83
2023/02/12 09:30:37;;;;;;;120.43;33.17;;;8.20;99.90;;;;;;5000093;28;20202;-83
2023/02/12 09:33:04;;;;;;;115.88;30.13;;;8.30;99.90;;;;;;5000955;28;20217;-83
2023/02/12 09:35:33;;;;;;;120.45;32.75;;;8.30;99.90;;;;;;5000528;28;20169;-83
2023/02/12 09:37:58;;;;;;;119.40;32.40;;;8.40;99.90;;;;;;5000902;28;20242;-83
2023/02/12 09:40:47;;;;;;;125.20;32.63;;;8.30;99.90;;;;;;4999817;28;20186;-83
2023/02/12 09:43:40;;;;;;;117.85;30.83;;;8.30;99.90;;;;;;5073003;22;20217;-83
2023/02/12 09:46:41;;;;;;;106.68;26.08;;;8.40;99.90;;;;;;5028296;28;20162;-83
2023/02/12 09:49:42;;;;;;;120.38;31.33;;;8.50;99.90;;;;;;5027781;28;20198;-83
2023/02/12 09:52:19;;;;;;;104.10;27.15;;;8.60;99.90;;;;;;5010569;28;20185;-83
2023/02/12 09:54:46;;;;;;;122.88;30.95;;;8.70;99.90;;;;;;5027235;28;20150;-83
2023/02/12 09:57:34;;;;;;;116.20;30.25;;;8.70;99.90;;;;;;5011274;28;20173;-83
2023/02/12 10:00:03;;;;;;;128.35;34.60;;;8.60;99.90;;;;;;5028233;28;20184;-82
2023/02/12 10:02:56;;;;;;;121.13;33.42;;;8.50;99.90;;;;;;5027696;28;20240;-82
2023/02/12 10:05:56;;;;;;;131.88;34.22;;;8.60;99.90;;;;;;5007299;28;20178;-82
2023/02/12 10:08:59;;;;;;;123.47;34.05;;;8.70;99.90;;;;;;5010294;28;20157;-82
2023/02/12 10:12:08;;;;;;;120.15;33.70;;;8.80;99.90;;;;;;5011127;28;20195;-83
2023/02/12 10:14:53;;;;;;;119.85;32.50;;;8.90;99.90;;;;;;5027490;28;20150;-83
2023/02/12 10:17:44;;;;;;;120.15;35.22;;;8.80;99.90;;;;;;5010875;28;20161;-83
2023/02/12 10:20:37;;;;;;;120.80;35.55;;;9.00;99.90;;;;;;5026460;28;20220;-83
2023/02/12 10:23:47;;;;;;;123.72;32.90;;;9.10;99.90;;;;;;5028114;28;20200;-83
2023/02/12 10:26:38;;;;;;;129.50;34.72;;;9.10;99.90;;;;;;5028062;28;20161;-82
2023/02/12 10:29:47;;;;;;;126.97;35.78;;;9.20;99.90;;;;;;5009592;28;20240;-82
2023/02/12 10:32:27;;;;;;;128.85;35.47;;;9.30;99.90;;;;;;5008103;28;20313;-83
2023/02/12 10:34:59;;;;;;;122.35;35.78;;;9.40;99.90;;;;;;5026993;28;20158;-83
2023/02/12 10:37:42;;;;;;;124.88;33.35;;;9.30;99.90;;;;;;5027534;28;20146;-83
2023/02/12 10:40:21;;;;;;;129.07;35.20;;;9.40;99.90;;;;;;5008622;28;20212;-83
2023/02/12 10:42:56;;;;;;;130.45;38.85;;;9.40;99.90;;;;;;5010040;28;20205;-82
2023/02/12 10:45:36;;;;;;;120.88;36.95;;;9.50;99.90;;;;;;5024700;28;20169;-83
2023/02/12 10:48:45;;;;;;;127.85;37.80;;;9.60;99.90;;;;;;5009859;28;20166;-83
2023/02/12 10:51:30;;;;;;;125.05;38.80;;;9.50;99.90;;;;;;5026966;28;20293;-83
2023/02/12 10:53:56;;;;;;;128.90;34.92;;;9.60;99.90;;;;;;5026524;28;20236;-83
2023/02/12 10:56:24;;;;;;;121.20;36.47;;;9.60;99.90;;;;;;5030308;28;20169;-82
2023/02/12 10:58:53;;;;;;;119.90;33.90;;;9.60;99.90;;;;;;5027341;28;20408;-83
2023/02/12 11:01:37;;;;;;;128.45;36.22;;;9.70;99.90;;;;;;5030018;28;20197;-83
2023/02/12 11:04:25;;;;;;;118.53;34.88;;;9.70;99.90;;;;;;5012735;28;20166;-83
2023/02/12 11:07:10;;;;;;;115.50;31.05;;;9.70;99.90;;;;;;5030042;28;20169;-84
2023/02/12 11:10:00;;;;;;;118.53;32.17;;;9.70;99.90;;;;;;5029695;28;20256;-83
2023/02/12 11:12:43;;;;;;;117.43;31.90;;;9.70;99.90;;;;;;5030425;28;20261;-83
2023/02/12 11:15:40;;;;;;;119.38;30.00;;;9.90;99.90;;;;;;5013800;28;20201;-83
2023/02/12 11:18:25;;;;;;;117.53;34.20;;;10.10;99.90;;;;;;5031038;28;20201;-83
2023/02/12 11:21:22;;;;;;;114.13;32.15;;;10.00;99.90;;;;;;5013611;28;20281;-83
2023/02/12 11:23:48;;;;;;;114.07;30.35;;;10.00;99.90;;;;;;5013694;28;20173;-83
2023/02/12 11:26:27;;;;;;;105.57;28.65;;;10.10;99.90;;;;;;5030793;28;20181;-83
2023/02/12 11:29:32;;;;;;;;;;;;;;;;;;;;;
2023/02/12 11:32:01;;;;;;;106.22;25.63;;;10.30;99.90;;;;;;5027119;28;20221;-83
2023/02/12 11:34:30;;;;;;;106.10;26.45;;;10.20;99.90;;;;;;5030598;28;20172;-83
2023/02/12 11:37:04;;;;;;;107.95;26.15;;;10.00;99.90;;;;;;5030506;28;20158;-83
2023/02/12 11:39:37;;;;;;;100.38;25.95;;;9.90;99.90;;;;;;5030870;28;20789;-83
2023/02/12 11:42:13;;;;;;;99.80;24.35;;;10.00;99.90;;;;;;5029254;28;20197;-83
2023/02/12 11:44:43;;;;;;;110.75;25.58;;;10.10;99.90;;;;;;5013358;28;20257;-83
2023/02/12 11:47:21;;;;;;;111.95;28.60;;;10.10;99.90;;;;;;5013213;28;20575;-84
2023/02/12 11:50:15;;;;;;;112.35;31.10;;;10.30;99.90;;;;;;5029131;28;20190;-83
2023/02/12 11:52:41;;;;;;;111.85;29.80;;;10.30;99.90;;;;;;5029515;28;20261;-83
2023/02/12 11:55:23;;;;;;;108.30;27.17;;;10.40;99.90;;;;;;5031025;28;20181;-83
2023/02/12 11:58:15;;;;;;;103.60;27.50;;;10.50;99.90;;;;;;5030351;28;20163;-83
2023/02/12 12:01:16;;;;;;;101.25;27.45;;;10.50;99.90;;;;;;5030572;28;20154;-83
2023/02/12 12:03:52;;;;;;;101.15;27.35;;;10.40;99.90;;;;;;5026581;28;20181;-83
2023/02/12 12:06:45;;;;;;;100.90;25.20;;;10.20;99.90;;;;;;5029713;28;20154;-83
2023/02/12 12:09:42;;;;;;;103.90;26.33;;;10.20;99.90;;;;;;5012594;28;20209;-83
2023/02/12 12:12:28;;;;;;;93.75;23.10;;;10.40;99.90;;;;;;5027561;28;20257;-83
2023/02/12 12:20:57;;;;;;;98.93;22.77;;;10.20;99.90;;;;;;5031344;28;20149;-83
2023/02/12 12:23:37;;;;;;;98.93;25.40;;;10.20;99.90;;;;;;5030318;28;20170;-83
2023/02/12 12:26:14;;;;;;;99.20;24.30;;;10.20;99.90;;;;;;5028978;28;20161;-83
2023/02/12 12:28:56;;;;;;;101.57;23.70;;;10.20;99.90;;;;;;5015991;28;20247;-82
2023/02/12 12:31:33;;;;;;;102.07;23.67;;;10.20;99.90;;;;;;5013907;28;20277;-83
2023/02/12 12:34:21;;;;;;;98.90;25.42;;;10.20;99.90;;;;;;5012114;28;20158;-83
2023/02/12 12:37:14;;;;;;;102.40;25.52;;;10.30;99.90;;;;;;5030029;28;20212;-83
2023/02/12 12:40:10;;;;;;;114.65;24.85;;;10.40;99.90;;;;;;5029161;28;20166;-83
2023/02/12 12:42:42;;;;;;;107.32;28.20;;;10.30;99.90;;;;;;5029036;28;20193;-83
2023/02/12 12:45:46;;;;;;;110.97;27.80;;;10.50;99.90;;;;;;5029490;28;20523;-83
2023/02/12 12:48:21;;;;;;;113.20;27.92;;;10.50;99.90;;;;;;5012424;28;20648;-83
2023/02/12 12:51:15;;;;;;;106.40;27.25;;;10.40;99.90;;;;;;5027992;28;20189;-83
2023/02/12 12:53:59;;;;;;;118.20;33.33;;;10.40;99.90;;;;;;5028590;28;20177;-83
2023/02/12 12:56:52;;;;;;;113.03;28.60;;;10.40;99.90;;;;;;5027954;28;20161;-83
2023/02/12 12:59:21;;;;;;;110.10;27.10;;;10.50;99.90;;;;;;5028282;28;20166;-83
2023/02/12 13:02:20;;;;;;;99.60;25.95;;;10.50;99.90;;;;;;5026875;28;20198;-83
2023/02/12 13:05:20;;;;;;;100.20;22.95;;;10.60;99.90;;;;;;5028662;28;20146;-83
2023/02/12 13:08:24;;;;;;;95.03;21.45;;;10.70;99.90;;;;;;5028353;28;20166;-83
2023/02/12 13:11:11;;;;;;;100.30;25.80;;;10.80;99.90;;;;;;5010633;28;20540;-83